Time;durP1;ratioP1;P1;durP2;ratioP2;P2;SDS_P1;SDS_P2;PMS_P1;PMS_P2;Temp;Humidity;BMP_temperature;BMP_pressure;BME280_temperature;BME280_humidity;BME280_pressure;Samples;Min_cycle;Max_cycle;Signal;HPM_P1;HPM_P2
2021/10/23 00:00:38;;;;;;;;;;;;;;;3.33;95.23;99176.28;4137225;28;19921;-71
2021/10/23 00:02:38;;;;;;;;;;;;;;;3.34;94.71;99181.44;4137326;28;20073;-71
2021/10/23 00:04:38;;;;;;;;;;;;;;;3.31;94.66;99176.63;4137063;28;20161;-71
2021/10/23 00:06:39;;;;;;;;;;;;;;;3.28;94.71;99169.00;4137528;28;19975;-71
2021/10/23 00:08:39;;;;;;;;;;;;;;;3.27;94.57;99180.28;4140281;28;19917;-71
2021/10/23 00:10:39;;;;;;;;;;;;;;;3.27;94.36;99172.06;4137857;28;19968;-71
2021/10/23 00:12:39;;;;;;;;;;;;;;;3.25;94.41;99166.91;4137285;28;19913;-71
2021/10/23 00:14:40;;;;;;;;;;;;;;;3.25;94.42;99179.78;4137365;28;19948;-71
2021/10/23 00:16:40;;;;;;;;;;;;;;;3.21;94.13;99173.31;4140635;28;20075;-71
2021/10/23 00:18:40;;;;;;;;;;;;;;;3.17;93.76;99172.34;4140203;28;20400;-71
2021/10/23 00:20:41;;;;;;;;;;;;;;;3.11;93.79;99182.56;4138049;28;20329;-71
2021/10/23 00:22:41;;;;;;;;;;;;;;;3.08;94.22;99183.22;4137553;28;20747;-71
2021/10/23 00:24:41;;;;;;;;;;;;;;;3.00;94.32;99184.78;4136370;28;20344;-71
2021/10/23 00:26:41;;;;;;;;;;;;;;;2.99;95.15;99183.16;4137102;28;19921;-71
2021/10/23 00:28:42;;;;;;;;;;;;;;;2.98;94.84;99187.00;4141866;28;20423;-71
2021/10/23 00:30:42;;;;;;;;;;;;;;;2.97;94.78;99188.09;4138842;28;20401;-71
2021/10/23 00:32:43;;;;;;;;;;;;;;;2.93;94.26;99189.06;4137443;28;19969;-71
2021/10/23 00:34:43;;;;;;;;;;;;;;;2.89;94.58;99190.78;4136534;28;19965;-71
2021/10/23 00:36:43;;;;;;;;;;;;;;;2.88;95.05;99195.44;4142930;28;19921;-71
2021/10/23 00:38:43;;;;;;;;;;;;;;;2.86;95.20;99194.94;4140002;28;19920;-71
2021/10/23 00:40:44;;;;;;;;;;;;;;;2.84;95.21;99204.56;4138108;28;19918;-71
2021/10/23 00:42:44;;;;;;;;;;;;;;;2.79;95.29;99203.56;4137515;28;20368;-71
2021/10/23 00:44:45;;;;;;;;;;;;;;;2.80;95.34;99202.44;4136209;28;19917;-71
2021/10/23 00:46:45;;;;;;;;;;;;;;;2.77;95.30;99211.28;4137011;28;19925;-71
2021/10/23 00:48:45;;;;;;;;;;;;;;;2.76;95.30;99209.66;4137436;28;20396;-71
2021/10/23 00:50:46;;;;;;;;;;;;;;;2.74;95.41;99214.63;4137446;28;19963;-71
2021/10/23 00:52:47;;;;;;;;;;;;;;;2.72;95.77;99222.31;4138607;28;19921;-71
2021/10/23 00:54:47;;;;;;;;;;;;;;;2.75;95.59;99226.38;4136467;28;19929;-71
2021/10/23 00:56:48;;;;;;;;;;;;;;;2.74;95.27;99222.84;4137344;28;19918;-71
2021/10/23 00:58:48;;;;;;;;;;;;;;;2.75;95.30;99218.97;4139520;28;19955;-71
2021/10/23 01:00:48;;;;;;;;;;;;;;;2.78;95.04;99231.22;4140034;28;20032;-71
2021/10/23 01:02:48;;;;;;;;;;;;;;;2.80;94.66;99224.31;4140440;28;19965;-71
2021/10/23 01:04:49;;;;;;;;;;;;;;;2.82;94.91;99229.50;4139113;28;19924;-71
2021/10/23 01:06:50;;;;;;;;;;;;;;;2.83;94.63;99227.56;4140064;28;19917;-71
2021/10/23 01:08:50;;;;;;;;;;;;;;;2.78;94.54;99234.75;4140069;28;20385;-71
2021/10/23 01:10:51;;;;;;;;;;;;;;;2.79;94.60;99228.16;4140100;28;19917;-71
2021/10/23 01:12:51;;;;;;;;;;;;;;;2.79;94.87;99233.63;4142703;28;19968;-71
2021/10/23 01:14:51;;;;;;;;;;;;;;;2.77;94.83;99232.31;4139422;28;19913;-71
2021/10/23 01:16:54;;;;;;;;;;;;;;;2.74;94.86;99239.22;4140141;28;19918;-71
2021/10/23 01:18:54;;;;;;;;;;;;;;;2.72;94.68;99244.16;4139893;28;19917;-71
2021/10/23 01:20:54;;;;;;;;;;;;;;;2.71;94.48;99242.56;4146023;28;19917;-71
2021/10/23 01:22:55;;;;;;;;;;;;;;;2.64;94.15;99241.34;4140092;28;20366;-71
2021/10/23 01:24:56;;;;;;;;;;;;;;;2.58;94.32;99243.41;4139304;28;19917;-71
2021/10/23 01:26:57;;;;;;;;;;;;;;;2.51;94.11;99241.09;4141773;28;20622;-71
2021/10/23 01:28:57;;;;;;;;;;;;;;;2.50;95.19;99244.13;4139719;28;20381;-71
2021/10/23 01:30:57;;;;;;;;;;;;;;;2.44;95.52;99248.09;4140035;28;20448;-71
2021/10/23 01:32:59;;;;;;;;;;;;;;;2.42;95.86;99247.59;4139412;28;19964;-71
2021/10/23 01:35:00;;;;;;;;;;;;;;;2.40;95.82;99247.06;4139056;28;19936;-71
2021/10/23 01:37:00;;;;;;;;;;;;;;;2.43;96.32;99246.47;4140984;28;19925;-71
2021/10/23 01:39:00;;;;;;;;;;;;;;;2.49;96.37;99247.97;4139600;28;19923;-71
2021/10/23 01:41:00;;;;;;;;;;;;;;;2.52;96.11;99247.38;4139605;28;19928;-71
2021/10/23 01:43:02;;;;;;;;;;;;;;;2.53;96.11;99254.44;4139256;28;19918;-71
2021/10/23 01:45:04;;;;;;;;;;;;;;;2.54;96.33;99245.13;4139132;28;19917;-71
2021/10/23 01:47:06;;;;;;;;;;;;;;;2.57;96.19;99252.72;4139158;28;19917;-71
2021/10/23 01:49:07;;;;;;;;;;;;;;;2.55;96.13;99257.66;4139678;28;19917;-71
2021/10/23 01:51:07;;;;;;;;;;;;;;;2.56;96.00;99253.00;4139211;28;19921;-71
2021/10/23 01:53:07;;;;;;;;;;;;;;;2.57;95.69;99251.91;4139242;28;20651;-71
2021/10/23 01:55:08;;;;;;;;;;;;;;;2.53;95.31;99251.69;4139426;28;20159;-71
2021/10/23 01:57:08;;;;;;;;;;;;;;;2.52;95.49;99263.75;4143280;28;19921;-71
2021/10/23 01:59:09;;;;;;;;;;;;;;;2.48;95.75;99252.63;4144070;28;19952;-71
2021/10/23 02:01:09;;;;;;;;;;;;;;;2.48;95.52;99254.53;4139346;28;19917;-71
2021/10/23 02:03:09;;;;;;;;;;;;;;;2.49;95.58;99253.44;4138783;28;20214;-71
2021/10/23 02:05:10;;;;;;;;;;;;;;;2.48;95.00;99258.09;4139272;28;19968;-71
2021/10/23 02:07:10;;;;;;;;;;;;;;;2.45;95.59;99266.88;4138894;28;19967;-71
2021/10/23 02:09:10;;;;;;;;;;;;;;;2.45;95.56;99255.16;4138225;28;19913;-71
2021/10/23 02:11:10;;;;;;;;;;;;;;;2.47;96.04;99250.19;4140875;28;20004;-71
2021/10/23 02:13:11;;;;;;;;;;;;;;;2.45;96.24;99252.44;4138529;28;19979;-71
2021/10/23 02:15:11;;;;;;;;;;;;;;;2.45;95.96;99257.88;4139217;28;20013;-71
2021/10/23 02:17:11;;;;;;;;;;;;;;;2.43;95.31;99260.13;4140927;28;20397;-71
2021/10/23 02:19:11;;;;;;;;;;;;;;;2.38;95.69;99263.75;4139063;28;19913;-71
2021/10/23 02:21:13;;;;;;;;;;;;;;;2.34;95.84;99261.97;4139056;28;19921;-71
2021/10/23 02:23:13;;;;;;;;;;;;;;;2.37;95.68;99261.34;4141268;28;19917;-71
2021/10/23 02:25:14;;;;;;;;;;;;;;;2.41;96.15;99262.34;4138701;28;20186;-71
2021/10/23 02:27:14;;;;;;;;;;;;;;;2.36;95.57;99263.25;4138836;28;19917;-71
2021/10/23 02:29:14;;;;;;;;;;;;;;;2.34;95.52;99264.69;4138766;28;20004;-71
2021/10/23 02:31:15;;;;;;;;;;;;;;;2.35;95.66;99258.91;4142428;28;20339;-71
2021/10/23 02:33:15;;;;;;;;;;;;;;;2.31;96.25;99260.63;4138011;28;20297;-71
2021/10/23 02:35:15;;;;;;;;;;;;;;;2.34;95.90;99259.22;4142435;28;19980;-71
2021/10/23 02:37:16;;;;;;;;;;;;;;;2.34;96.17;99265.50;4139048;28;19939;-71
2021/10/23 02:39:16;;;;;;;;;;;;;;;2.33;96.19;99268.53;4138727;28;19917;-71
2021/10/23 02:41:18;;;;;;;;;;;;;;;2.40;96.14;99263.44;4138222;28;20281;-71
2021/10/23 02:43:18;;;;;;;;;;;;;;;2.42;96.23;99261.25;4137931;28;19918;-71
2021/10/23 02:45:18;;;;;;;;;;;;;;;2.38;95.65;99262.94;4144039;28;20318;-71
2021/10/23 02:47:19;;;;;;;;;;;;;;;2.40;95.76;99269.75;4138451;28;20559;-71
2021/10/23 02:49:19;;;;;;;;;;;;;;;2.44;95.83;99273.47;4141037;28;19917;-71
2021/10/23 02:51:19;;;;;;;;;;;;;;;2.45;95.46;99269.63;4138818;28;20051;-71
2021/10/23 02:53:19;;;;;;;;;;;;;;;2.45;95.45;99266.09;4137674;28;20370;-71
2021/10/23 02:55:20;;;;;;;;;;;;;;;2.45;95.69;99275.09;4138238;28;19968;-71
2021/10/23 02:57:20;;;;;;;;;;;;;;;2.42;95.69;99266.69;4139235;28;20665;-71
2021/10/23 02:59:20;;;;;;;;;;;;;;;2.46;95.01;99276.69;4138279;28;19917;-71
2021/10/23 03:01:21;;;;;;;;;;;;;;;2.43;95.25;99282.78;4138179;28;20099;-71
2021/10/23 03:03:21;;;;;;;;;;;;;;;2.40;95.25;99285.28;4138946;28;19917;-71
2021/10/23 03:05:21;;;;;;;;;;;;;;;2.41;95.83;99284.22;4138678;28;20321;-71
2021/10/23 03:07:21;;;;;;;;;;;;;;;2.42;95.31;99288.56;4143273;28;19921;-71
2021/10/23 03:09:22;;;;;;;;;;;;;;;2.41;95.28;99289.66;4137849;28;19924;-71
2021/10/23 03:11:22;;;;;;;;;;;;;;;2.45;95.38;99296.13;4139927;28;20101;-71
2021/10/23 03:13:22;;;;;;;;;;;;;;;2.51;95.12;99292.19;4137471;28;20277;-71
2021/10/23 03:15:23;;;;;;;;;;;;;;;2.48;94.55;99299.06;4137795;28;19918;-71
2021/10/23 03:17:23;;;;;;;;;;;;;;;2.45;94.33;99313.31;4138502;28;19956;-71
2021/10/23 03:19:23;;;;;;;;;;;;;;;2.44;94.60;99308.97;4138055;28;19914;-71
2021/10/23 03:21:23;;;;;;;;;;;;;;;2.42;94.88;99316.66;4137727;28;19929;-71
2021/10/23 03:23:24;;;;;;;;;;;;;;;2.47;95.03;99313.00;4137407;28;19932;-71
2021/10/23 03:25:24;;;;;;;;;;;;;;;2.51;94.93;99311.31;4137993;28;19928;-71
2021/10/23 03:27:25;;;;;;;;;;;;;;;2.52;94.58;99319.19;4137630;28;20052;-71
2021/10/23 03:29:25;;;;;;;;;;;;;;;2.51;94.91;99328.50;4137673;28;20413;-71
2021/10/23 03:31:26;;;;;;;;;;;;;;;2.51;94.91;99331.22;4138482;28;19964;-71
2021/10/23 03:33:26;;;;;;;;;;;;;;;2.51;94.71;99322.22;4137457;28;19921;-71
2021/10/23 03:35:26;;;;;;;;;;;;;;;2.54;94.82;99319.69;4138062;28;20249;-71
2021/10/23 03:37:28;;;;;;;;;;;;;;;2.53;94.39;99330.94;4137874;28;19925;-71
2021/10/23 03:39:28;;;;;;;;;;;;;;;2.54;94.64;99330.63;4137219;28;20004;-71
2021/10/23 03:41:28;;;;;;;;;;;;;;;2.56;94.92;99332.22;4137660;28;20383;-71
2021/10/23 03:43:28;;;;;;;;;;;;;;;2.51;95.01;99333.16;4137313;28;19922;-71
2021/10/23 03:45:29;;;;;;;;;;;;;;;2.50;94.67;99342.47;4137663;28;20209;-71
2021/10/23 03:47:31;;;;;;;;;;;;;;;2.51;95.05;99333.97;4137496;28;19923;-71
2021/10/23 03:49:31;;;;;;;;;;;;;;;2.49;94.97;99338.94;4137503;28;20557;-71
2021/10/23 03:51:31;;;;;;;;;;;;;;;2.51;94.54;99353.09;4142984;28;19971;-71
2021/10/23 03:53:31;;;;;;;;;;;;;;;2.54;94.74;99349.75;4137139;28;20515;-71
2021/10/23 03:55:32;;;;;;;;;;;;;;;2.52;95.02;99356.63;4140548;28;19964;-71
2021/10/23 03:57:32;;;;;;;;;;;;;;;2.48;94.90;99358.34;4140808;28;20048;-71
2021/10/23 03:59:32;;;;;;;;;;;;;;;2.47;95.07;99354.78;4137032;28;19922;-71
2021/10/23 04:01:33;;;;;;;;;;;;;;;2.46;94.64;99358.63;4134902;28;19957;-71
2021/10/23 04:03:33;;;;;;;;;;;;;;;2.46;94.88;99363.28;4137904;28;19921;-71
2021/10/23 04:05:33;;;;;;;;;;;;;;;2.46;94.87;99369.56;4140955;28;20393;-71
2021/10/23 04:07:34;;;;;;;;;;;;;;;2.45;95.41;99367.94;4142199;28;19963;-71
2021/10/23 04:09:34;;;;;;;;;;;;;;;2.42;95.31;99368.56;4141453;28;19960;-71
2021/10/23 04:11:35;;;;;;;;;;;;;;;2.39;95.33;99374.63;4140798;28;19924;-71
2021/10/23 04:13:36;;;;;;;;;;;;;;;2.42;95.55;99365.03;4139617;28;19921;-71
2021/10/23 04:15:36;;;;;;;;;;;;;;;2.38;95.82;99364.81;4136873;28;20022;-71
2021/10/23 04:17:36;;;;;;;;;;;;;;;2.33;95.76;99369.56;4135902;28;19921;-71
2021/10/23 04:19:36;;;;;;;;;;;;;;;2.31;96.26;99372.59;4138971;28;19981;-71
2021/10/23 04:21:37;;;;;;;;;;;;;;;2.29;95.98;99376.75;4140321;28;20372;-71
2021/10/23 04:23:37;;;;;;;;;;;;;;;2.30;95.79;99373.69;4139665;28;20015;-71
2021/10/23 04:25:37;;;;;;;;;;;;;;;2.35;95.93;99372.81;4140839;28;19986;-71
2021/10/23 04:27:37;;;;;;;;;;;;;;;2.35;95.52;99373.63;4141994;28;19939;-71
2021/10/23 04:29:38;;;;;;;;;;;;;;;2.38;95.17;99380.38;4141583;28;20272;-71
2021/10/23 04:31:38;;;;;;;;;;;;;;;2.44;95.06;99376.47;4141009;28;20254;-71
2021/10/23 04:33:38;;;;;;;;;;;;;;;2.42;94.00;99387.69;4143739;28;19923;-71
2021/10/23 04:35:39;;;;;;;;;;;;;;;2.38;94.34;99383.94;4144067;28;19944;-71
2021/10/23 04:37:40;;;;;;;;;;;;;;;2.38;94.62;99388.59;4142722;28;19944;-71
2021/10/23 04:39:40;;;;;;;;;;;;;;;2.28;93.97;99386.84;4143121;28;20068;-71
2021/10/23 04:41:41;;;;;;;;;;;;;;;2.21;94.35;99389.16;4146100;28;19928;-71
2021/10/23 04:43:41;;;;;;;;;;;;;;;2.17;94.24;99393.63;4143964;28;19921;-71
2021/10/23 04:45:41;;;;;;;;;;;;;;;2.03;93.15;99388.13;4144254;28;20506;-71
2021/10/23 04:47:42;;;;;;;;;;;;;;;1.99;94.07;99395.31;4143943;28;20032;-71
2021/10/23 04:49:42;;;;;;;;;;;;;;;1.97;94.58;99398.31;4145416;28;20313;-71
2021/10/23 04:51:42;;;;;;;;;;;;;;;1.87;94.30;99408.59;4145147;28;19987;-71
2021/10/23 04:53:42;;;;;;;;;;;;;;;1.78;94.94;99394.00;4143775;28;19917;-71
2021/10/23 04:55:43;;;;;;;;;;;;;;;1.76;95.35;99390.78;4143868;28;20348;-71
2021/10/23 04:57:43;;;;;;;;;;;;;;;1.69;94.36;99394.69;4143132;28;20286;-71
2021/10/23 04:59:43;;;;;;;;;;;;;;;1.67;94.90;99394.19;4145209;28;19953;-71
2021/10/23 05:01:43;;;;;;;;;;;;;;;1.62;94.84;99399.69;4144569;28;19988;-71
2021/10/23 05:03:44;;;;;;;;;;;;;;;1.64;95.25;99397.47;4144671;28;19920;-71
2021/10/23 05:05:44;;;;;;;;;;;;;;;1.60;95.03;99393.75;4143725;28;19928;-71
2021/10/23 05:07:44;;;;;;;;;;;;;;;1.62;95.29;99399.69;4142746;28;20000;-71
2021/10/23 05:09:44;;;;;;;;;;;;;;;1.52;95.20;99393.59;4144642;28;19968;-71
2021/10/23 05:11:44;;;;;;;;;;;;;;;1.47;94.75;99389.03;4144203;28;19918;-71
2021/10/23 05:13:45;;;;;;;;;;;;;;;1.35;94.94;99386.75;4142789;28;19918;-71
2021/10/23 05:15:45;;;;;;;;;;;;;;;1.34;95.68;99382.41;4145746;28;19955;-71
2021/10/23 05:17:46;;;;;;;;;;;;;;;1.29;95.80;99376.22;4143885;28;20011;-71
2021/10/23 05:19:46;;;;;;;;;;;;;;;1.26;95.52;99363.19;4144321;28;19917;-71
2021/10/23 05:21:46;;;;;;;;;;;;;;;1.23;95.51;99363.75;4143069;28;19944;-71
2021/10/23 05:23:47;;;;;;;;;;;;;;;1.24;96.07;99360.75;4143731;28;19917;-71
2021/10/23 05:25:47;;;;;;;;;;;;;;;1.22;95.87;99360.22;4144362;28;19936;-71
2021/10/23 05:27:47;;;;;;;;;;;;;;;1.12;95.30;99369.34;4142999;28;19925;-71
2021/10/23 05:29:48;;;;;;;;;;;;;;;1.09;95.91;99364.50;4146491;28;20424;-71
2021/10/23 05:31:48;;;;;;;;;;;;;;;1.07;95.96;99358.50;4142347;28;20378;-71
2021/10/23 05:33:48;;;;;;;;;;;;;;;1.05;96.00;99368.09;4144133;28;19925;-71
2021/10/23 05:35:48;;;;;;;;;;;;;;;1.01;96.71;99359.72;4143891;28;19917;-71
2021/10/23 05:37:49;;;;;;;;;;;;;;;0.98;96.15;99354.00;4142709;28;20056;-70
2021/10/23 05:39:50;;;;;;;;;;;;;;;1.00;96.44;99360.81;4142423;28;19917;-71
2021/10/23 05:41:50;;;;;;;;;;;;;;;1.01;96.29;99359.72;4144151;28;20327;-71
2021/10/23 05:43:50;;;;;;;;;;;;;;;0.97;95.35;99372.28;4142325;28;19917;-71
2021/10/23 05:45:50;;;;;;;;;;;;;;;0.94;95.57;99375.59;4143617;28;20294;-71
2021/10/23 05:47:51;;;;;;;;;;;;;;;0.94;96.09;99380.25;4143003;28;20393;-71
2021/10/23 05:49:51;;;;;;;;;;;;;;;0.88;95.68;99384.94;4144737;28;19972;-71
2021/10/23 05:51:51;;;;;;;;;;;;;;;0.89;96.07;99385.75;4142998;28;20200;-70
2021/10/23 05:53:51;;;;;;;;;;;;;;;0.94;96.32;99380.25;4143734;28;19917;-71
2021/10/23 05:55:52;;;;;;;;;;;;;;;0.92;95.91;99377.00;4142481;28;19932;-71
2021/10/23 05:57:52;;;;;;;;;;;;;;;1.02;95.65;99372.22;4143099;28;19968;-71
2021/10/23 05:59:52;;;;;;;;;;;;;;;1.02;95.70;99380.41;4142936;28;19917;-71
2021/10/23 06:01:58;;;;;;;;;;;;;;;1.13;95.18;99375.59;4139565;28;19917;-71
2021/10/23 06:03:59;;;;;;;;;;;;;;;1.10;94.72;99390.66;4136163;28;20058;-71
2021/10/23 06:05:59;;;;;;;;;;;;;;;0.98;95.31;99390.25;4143111;28;19928;-71
2021/10/23 06:08:00;;;;;;;;;;;;;;;0.92;95.50;99396.88;4143686;28;20003;-71
2021/10/23 06:10:02;;;;;;;;;;;;;;;0.92;95.70;99401.53;4144952;28;19994;-71
2021/10/23 06:12:03;;;;;;;;;;;;;;;0.98;95.36;99416.69;4138557;28;19917;-71
2021/10/23 06:14:04;;;;;;;;;;;;;;;0.92;94.66;99421.41;4142146;28;19914;-71
2021/10/23 06:16:04;;;;;;;;;;;;;;;0.89;94.82;99426.63;4139333;28;19913;-71
2021/10/23 06:18:04;;;;;;;;;;;;;;;0.90;95.23;99418.16;4138977;28;19909;-71
2021/10/23 06:20:06;;;;;;;;;;;;;;;0.90;95.91;99428.22;4138689;28;20317;-71
2021/10/23 06:22:06;;;;;;;;;;;;;;;0.92;95.11;99429.59;4139074;28;19913;-71
2021/10/23 06:24:07;;;;;;;;;;;;;;;0.97;95.49;99440.41;4137435;28;19963;-71
2021/10/23 06:26:07;;;;;;;;;;;;;;;1.03;95.54;99444.69;4138373;28;20336;-71
2021/10/23 06:28:07;;;;;;;;;;;;;;;1.01;96.01;99446.91;4138940;28;19996;-71
2021/10/23 06:30:07;;;;;;;;;;;;;;;0.92;95.43;99453.31;4139131;28;20332;-71
2021/10/23 06:32:08;;;;;;;;;;;;;;;0.94;96.27;99456.53;4138330;28;19921;-70
2021/10/23 06:34:08;;;;;;;;;;;;;;;0.97;96.73;99456.75;4137650;28;20239;-70
2021/10/23 06:36:08;;;;;;;;;;;;;;;1.00;96.22;99458.09;4138939;28;19914;-71
2021/10/23 06:38:09;;;;;;;;;;;;;;;1.06;95.43;99460.47;4138759;28;19920;-71
2021/10/23 06:40:09;;;;;;;;;;;;;;;1.06;95.40;99460.47;4138415;28;19965;-71
2021/10/23 06:42:10;;;;;;;;;;;;;;;1.09;95.58;99468.06;4138508;28;19933;-71
2021/10/23 06:44:10;;;;;;;;;;;;;;;1.06;95.97;99468.63;4138595;28;19913;-71
2021/10/23 06:46:10;;;;;;;;;;;;;;;1.06;97.34;99473.28;4138136;28;20269;-70
2021/10/23 06:48:11;;;;;;;;;;;;;;;1.09;97.35;99478.16;4138054;28;19914;-71
2021/10/23 06:50:12;;;;;;;;;;;;;;;1.14;96.74;99480.81;4138721;28;19918;-71
2021/10/23 06:52:13;;;;;;;;;;;;;;;1.17;96.11;99493.88;4138206;28;20103;-71
2021/10/23 06:54:13;;;;;;;;;;;;;;;1.23;95.93;99495.41;4140794;28;20420;-71
2021/10/23 06:56:13;;;;;;;;;;;;;;;1.29;95.56;99498.91;4138027;28;20305;-71
2021/10/23 06:58:14;;;;;;;;;;;;;;;1.36;95.47;99499.34;4138303;28;19917;-71
2021/10/23 07:00:14;;;;;;;;;;;;;;;1.40;95.66;99492.19;4140572;28;20288;-71
2021/10/23 07:02:14;;;;;;;;;;;;;;;1.43;95.15;99493.56;4137891;28;19924;-71
2021/10/23 07:04:14;;;;;;;;;;;;;;;1.42;94.73;99505.56;4137444;28;20051;-71
2021/10/23 07:06:15;;;;;;;;;;;;;;;1.48;95.04;99518.81;4142284;28;19960;-71
2021/10/23 07:08:15;;;;;;;;;;;;;;;1.53;96.04;99520.69;4138438;28;19914;-70
2021/10/23 07:10:15;;;;;;;;;;;;;;;1.56;96.95;99515.44;4143605;28;19923;-70
2021/10/23 07:12:15;;;;;;;;;;;;;;;1.61;97.82;99522.75;4141295;28;20000;-70
2021/10/23 07:14:16;;;;;;;;;;;;;;;1.66;97.35;99528.16;4139542;28;20005;-70
2021/10/23 07:16:16;;;;;;;;;;;;;;;1.72;96.81;99531.59;4142893;28;19917;-70
2021/10/23 07:18:18;;;;;;;;;;;;;;;1.78;96.98;99527.72;4139077;28;19955;-70
2021/10/23 07:20:22;;;;;;;;;;;;;;;1.87;97.67;99525.94;4142617;28;20328;-70
2021/10/23 07:22:23;;;;;;;;;;;;;;;1.94;97.99;99529.91;4140826;28;19928;-70
2021/10/23 07:24:23;;;;;;;;;;;;;;;2.00;97.83;99527.94;4141701;28;20384;-70
2021/10/23 07:26:23;;;;;;;;;;;;;;;2.06;97.25;99534.09;4141144;28;20173;-71
2021/10/23 07:28:23;;;;;;;;;;;;;;;2.16;97.45;99540.25;4142397;28;19917;-71
2021/10/23 07:30:24;;;;;;;;;;;;;;;2.24;97.44;99536.84;4138901;28;19937;-71
2021/10/23 07:32:24;;;;;;;;;;;;;;;2.36;97.21;99544.56;4142203;28;19964;-71
2021/10/23 07:34:24;;;;;;;;;;;;;;;2.47;97.40;99550.66;4139071;28;20280;-71
2021/10/23 07:36:25;;;;;;;;;;;;;;;2.58;97.42;99557.59;4137428;28;19921;-71
2021/10/23 07:38:26;;;;;;;;;;;;;;;2.64;97.11;99563.78;4142810;28;19916;-71
2021/10/23 07:40:29;;;;;;;;;;;;;;;2.78;97.56;99567.34;4140628;28;19928;-71
2021/10/23 07:42:29;;;;;;;;;;;;;;;2.88;97.15;99583.56;4144134;28;19917;-71
2021/10/23 07:44:30;;;;;;;;;;;;;;;2.94;96.59;99563.25;4141389;28;19924;-71
2021/10/23 07:46:30;;;;;;;;;;;;;;;2.97;95.55;99568.09;4140533;28;19941;-71
2021/10/23 07:48:32;;;;;;;;;;;;;;;3.04;95.77;99565.78;4139182;28;20269;-71
2021/10/23 07:50:32;;;;;;;;;;;;;;;3.16;95.92;99565.31;4144349;28;19925;-71
2021/10/23 07:52:33;;;;;;;;;;;;;;;3.27;96.43;99576.84;4136674;28;19924;-71
2021/10/23 07:54:33;;;;;;;;;;;;;;;3.36;96.11;99573.09;4129612;28;19929;-71
2021/10/23 07:56:35;;;;;;;;;;;;;;;3.51;96.04;99576.66;4120398;28;20009;-71
2021/10/23 07:58:36;;;;;;;;;;;;;;;3.64;95.42;99589.50;4120182;28;19918;-71
2021/10/23 08:00:36;;;;;;;;;;;;;;;3.77;95.04;99582.41;4122814;28;19925;-71
2021/10/23 08:02:47;;;;;;;;;;;;;;;3.86;94.80;99591.53;4123028;28;19917;-71
2021/10/23 08:04:50;;;;;;;;;;;;;;;4.00;93.71;99591.50;4123372;28;19921;-71
2021/10/23 08:06:50;;;;;;;;;;;;;;;4.04;93.71;99587.84;4124908;28;19968;-71
2021/10/23 08:08:50;;;;;;;;;;;;;;;4.06;93.18;99595.75;4126449;28;20366;-71
2021/10/23 08:10:51;;;;;;;;;;;;;;;4.10;93.30;99602.22;4125171;28;19921;-71
2021/10/23 08:12:51;;;;;;;;;;;;;;;4.20;93.84;99599.25;4124955;28;20311;-71
2021/10/23 08:14:52;;;;;;;;;;;;;;;4.28;92.66;99601.25;4125858;28;20546;-71
2021/10/23 08:16:52;;;;;;;;;;;;;;;4.33;91.99;99605.84;4124392;28;19925;-71
2021/10/23 08:18:52;;;;;;;;;;;;;;;4.50;90.82;99606.78;4123382;28;19918;-71
2021/10/23 08:20:52;;;;;;;;;;;;;;;4.62;90.73;99608.16;4121066;28;19928;-71
2021/10/23 08:22:53;;;;;;;;;;;;;;;4.72;90.46;99616.16;4121200;28;19964;-71
2021/10/23 08:24:53;;;;;;;;;;;;;;;4.82;90.23;99620.56;4120852;28;19980;-71
2021/10/23 08:26:54;;;;;;;;;;;;;;;4.91;89.36;99621.44;4122057;28;19922;-71
2021/10/23 08:28:54;;;;;;;;;;;;;;;4.95;89.83;99617.72;4121757;28;19918;-71
2021/10/23 08:30:54;;;;;;;;;;;;;;;5.07;88.71;99617.19;4119946;28;20004;-71
2021/10/23 08:32:55;;;;;;;;;;;;;;;5.22;87.87;99616.78;4126027;28;19925;-71
2021/10/23 08:34:56;;;;;;;;;;;;;;;5.23;89.08;99620.34;4125396;28;19971;-71
2021/10/23 08:36:56;;;;;;;;;;;;;;;5.22;88.21;99619.53;4124061;28;20370;-71
2021/10/23 08:38:59;;;;;;;;;;;;;;;5.30;87.51;99624.25;4124744;28;20186;-71
2021/10/23 08:41:01;;;;;;;;;;;;;;;5.40;85.10;99628.66;4123896;28;19925;-71
2021/10/23 08:43:04;;;;;;;;;;;;;;;5.56;84.77;99621.63;4124502;28;20329;-71
2021/10/23 08:45:06;;;;;;;;;;;;;;;5.64;84.76;99620.84;4124108;28;19918;-71
2021/10/23 08:47:06;;;;;;;;;;;;;;;5.69;84.72;99624.56;4124698;28;20223;-71
2021/10/23 08:49:07;;;;;;;;;;;;;;;5.71;84.72;99631.38;4124212;28;20307;-71
2021/10/23 08:51:09;;;;;;;;;;;;;;;5.78;84.26;99630.88;4125421;28;19922;-70
2021/10/23 08:53:10;;;;;;;;;;;;;;;5.87;82.45;99637.22;4124777;28;20116;-71
2021/10/23 08:55:10;;;;;;;;;;;;;;;6.10;81.23;99641.50;4125043;28;19917;-71
2021/10/23 08:57:11;;;;;;;;;;;;;;;6.19;78.80;99639.59;4127777;28;20432;-71
2021/10/23 08:59:11;;;;;;;;;;;;;;;6.26;78.32;99624.56;4124350;28;19917;-71
2021/10/23 09:01:14;;;;;;;;;;;;;;;6.30;77.33;99633.81;4124460;28;20009;-71
2021/10/23 09:03:14;;;;;;;;;;;;;;;6.35;78.32;99641.88;4123833;28;19918;-71
2021/10/23 09:05:15;;;;;;;;;;;;;;;6.42;78.18;99642.22;4126495;28;19949;-71
2021/10/23 09:07:15;;;;;;;;;;;;;;;6.42;79.30;99642.22;4125365;28;19922;-71
2021/10/23 09:09:18;;;;;;;;;;;;;;;6.46;78.62;99644.00;4122480;28;19918;-71
2021/10/23 09:11:32;;;;;;;;;;;;;;;6.48;78.60;99646.44;4126297;28;20310;-71
2021/10/23 09:13:35;;;;;;;;;;;;;;;6.57;76.60;99651.94;4124045;28;20294;-71
2021/10/23 09:15:37;;;;;;;;;;;;;;;6.56;77.81;99651.13;4120559;28;19914;-71
2021/10/23 09:17:40;;;;;;;;;;;;;;;6.59;77.46;99649.66;4126382;28;19918;-71
2021/10/23 09:19:41;;;;;;;;;;;;;;;6.64;76.20;99655.00;4127721;28;19917;-71
2021/10/23 09:21:42;;;;;;;;;;;;;;;6.72;76.88;99659.72;4123795;28;19926;-71
2021/10/23 09:23:42;;;;;;;;;;;;;;;6.71;77.22;99660.84;4122951;28;19921;-71
2021/10/23 09:25:42;;;;;;;;;;;;;;;6.75;77.53;99667.31;4124985;28;19925;-71
2021/10/23 09:27:52;;;;;;;;;;;;;;;6.73;77.08;99670.38;4123229;28;20003;-71
2021/10/23 09:29:53;;;;;;;;;;;;;;;6.73;75.21;99669.56;4123385;28;20300;-71
2021/10/23 09:31:55;;;;;;;;;;;;;;;6.73;75.89;99669.56;4123505;28;19926;-71
2021/10/23 09:33:59;;;;;;;;;;;;;;;6.76;76.11;99666.16;4125028;28;19925;-71
2021/10/23 09:36:06;;;;;;;;;;;;;;;6.83;76.45;99662.94;4123086;28;20329;-71
2021/10/23 09:38:09;;;;;;;;;;;;;;;6.94;76.33;99673.28;4123906;28;19964;-70
2021/10/23 09:40:09;;;;;;;;;;;;;;;7.06;73.95;99669.88;4123599;28;19988;-71
2021/10/23 09:42:10;;;;;;;;;;;;;;;7.10;72.93;99670.81;4123037;28;19941;-71
2021/10/23 09:44:14;;;;;;;;;;;;;;;7.10;73.32;99678.28;4122810;28;20020;-71
2021/10/23 09:46:15;;;;;;;;;;;;;;;7.10;74.82;99672.78;4124918;28;20262;-71
2021/10/23 09:48:16;;;;;;;;;;;;;;;7.15;73.98;99678.94;4123463;28;19956;-71
2021/10/23 09:53:36;;;;;;;;;;;;;;;7.43;75.25;99679.34;4164811;27;19988;-70
2021/10/23 09:56:18;;;;;;;;;;;;;;;7.52;74.36;99674.63;4199732;27;20265;-71
2021/10/23 09:58:25;;;;;;;;;;;;;;;7.49;71.42;99677.22;4176148;28;19925;-71
2021/10/23 10:00:26;;;;;;;;;;;;;;;7.27;72.70;99679.06;4169596;28;19928;-71
2021/10/23 10:02:42;;;;;;;;;;;;;;;7.18;71.17;99677.47;4184987;27;19972;-71
2021/10/23 10:04:42;;;;;;;;;;;;;;;7.06;72.74;99694.66;4156084;28;20331;-71
2021/10/23 10:06:43;;;;;;;;;;;;;;;7.01;72.18;99692.03;4166992;28;19921;-71
2021/10/23 10:08:44;;;;;;;;;;;;;;;7.03;71.04;99693.34;4166728;28;20422;-70
2021/10/23 10:10:45;;;;;;;;;;;;;;;6.95;72.33;99691.44;4161028;28;19922;-70
2021/10/23 10:12:46;;;;;;;;;;;;;;;6.98;73.43;99690.75;4151118;28;19926;-70
2021/10/23 10:14:46;;;;;;;;;;;;;;;7.00;73.57;99693.19;4164625;28;19921;-70
2021/10/23 10:16:53;;;;;;;;;;;;;;;7.02;73.99;99701.91;4150978;28;19945;-70
2021/10/23 10:18:56;;;;;;;;;;;;;;;7.06;74.10;99699.34;4150360;28;19921;-70
2021/10/23 10:20:57;;;;;;;;;;;;;;;7.09;74.19;99693.16;4150480;28;19922;-70
2021/10/23 10:22:57;;;;;;;;;;;;;;;7.07;72.47;99701.75;4150743;28;20389;-70
2021/10/23 10:25:17;;;;;;;;;;;;;;;7.11;72.74;99696.41;4149151;28;20365;-71
2021/10/23 10:27:20;;;;;;;;;;;;;;;7.15;72.20;99695.44;4162823;28;19921;-71
2021/10/23 10:31:43;;;;;;;;;;;;;;;7.18;72.48;99696.72;4165720;28;19941;-71
2021/10/23 10:33:55;;;;;;;;;;;;;;;7.24;72.13;99701.75;4165368;28;19954;-71
2021/10/23 10:36:29;;;;;;;;;;;;;;;7.32;71.00;99703.66;4166366;28;19924;-71
2021/10/23 10:39:22;;;;;;;;;;;;;;;7.50;71.20;99704.44;4165593;28;19917;-71
2021/10/23 10:42:42;;;;;;;;;;;;;;;7.66;70.81;99698.41;4158814;28;20273;-71
2021/10/23 10:43:24;;;;;;;;;;;;;;;7.77;71.12;99697.72;4165437;28;20240;-71
2021/10/23 10:45:28;;;;;;;;;;;;;;;7.85;70.30;99693.31;4166251;28;19928;-71